sensor_id;sensor_type;location;lat;lon;timestamp;temperature;humidity
43858;DHT22;29507;51.284;5.758;2022-08-21T00:00:13;14.00;99.90
43858;DHT22;29507;51.284;5.758;2022-08-21T00:02:46;14.00;99.90
43858;DHT22;29507;51.284;5.758;2022-08-21T00:05:13;13.90;99.90
43858;DHT22;29507;51.284;5.758;2022-08-21T00:07:38;13.90;99.90
43858;DHT22;29507;51.284;5.758;2022-08-21T00:10:04;13.90;99.90
43858;DHT22;29507;51.284;5.758;2022-08-21T00:12:30;13.80;99.90
43858;DHT22;29507;51.284;5.758;2022-08-21T00:14:56;13.70;99.90
43858;DHT22;29507;51.284;5.758;2022-08-21T00:17:22;13.70;99.90
43858;DHT22;29507;51.284;5.758;2022-08-21T00:19:48;13.70;99.90
43858;DHT22;29507;51.284;5.758;2022-08-21T00:22:14;13.70;99.90
43858;DHT22;29507;51.284;5.758;2022-08-21T00:24:39;13.60;99.90
43858;DHT22;29507;51.284;5.758;2022-08-21T00:27:05;13.60;99.90
43858;DHT22;29507;51.284;5.758;2022-08-21T00:29:31;13.50;99.90
43858;DHT22;29507;51.284;5.758;2022-08-21T00:31:56;13.60;99.90
43858;DHT22;29507;51.284;5.758;2022-08-21T00:34:22;13.60;99.90
43858;DHT22;29507;51.284;5.758;2022-08-21T00:36:47;13.60;99.90
43858;DHT22;29507;51.284;5.758;2022-08-21T00:39:13;13.60;99.90
43858;DHT22;29507;51.284;5.758;2022-08-21T00:41:41;13.60;99.90
43858;DHT22;29507;51.284;5.758;2022-08-21T00:44:08;13.60;99.90
43858;DHT22;29507;51.284;5.758;2022-08-21T00:46:35;13.60;99.90
43858;DHT22;29507;51.284;5.758;2022-08-21T00:49:00;13.60;99.90
43858;DHT22;29507;51.284;5.758;2022-08-21T00:51:35;13.60;99.90
43858;DHT22;29507;51.284;5.758;2022-08-21T00:54:02;13.50;99.90
43858;DHT22;29507;51.284;5.758;2022-08-21T00:56:28;13.60;99.90
43858;DHT22;29507;51.284;5.758;2022-08-21T00:58:56;13.50;99.90
43858;DHT22;29507;51.284;5.758;2022-08-21T01:01:22;13.50;99.90
43858;DHT22;29507;51.284;5.758;2022-08-21T01:03:49;13.50;99.90
43858;DHT22;29507;51.284;5.758;2022-08-21T01:06:15;13.50;99.90
43858;DHT22;29507;51.284;5.758;2022-08-21T01:08:41;13.50;99.90
43858;DHT22;29507;51.284;5.758;2022-08-21T01:11:07;13.50;99.90
43858;DHT22;29507;51.284;5.758;2022-08-21T01:13:36;13.60;99.90
43858;DHT22;29507;51.284;5.758;2022-08-21T01:16:05;13.50;99.90
43858;DHT22;29507;51.284;5.758;2022-08-21T01:18:33;13.50;99.90
43858;DHT22;29507;51.284;5.758;2022-08-21T01:21:09;13.50;99.90
43858;DHT22;29507;51.284;5.758;2022-08-21T01:23:37;13.50;99.90
43858;DHT22;29507;51.284;5.758;2022-08-21T01:26:05;13.60;99.90
43858;DHT22;29507;51.284;5.758;2022-08-21T01:28:34;13.60;99.90
43858;DHT22;29507;51.284;5.758;2022-08-21T01:31:03;13.60;99.90
43858;DHT22;29507;51.284;5.758;2022-08-21T01:33:30;13.60;99.90
43858;DHT22;29507;51.284;5.758;2022-08-21T01:35:56;13.60;99.90
43858;DHT22;29507;51.284;5.758;2022-08-21T01:38:21;13.60;99.90
43858;DHT22;29507;51.284;5.758;2022-08-21T01:40:47;13.60;99.90
43858;DHT22;29507;51.284;5.758;2022-08-21T01:43:13;13.60;99.90
43858;DHT22;29507;51.284;5.758;2022-08-21T01:45:38;13.60;99.90
43858;DHT22;29507;51.284;5.758;2022-08-21T01:48:04;13.60;99.90
43858;DHT22;29507;51.284;5.758;2022-08-21T01:50:30;13.60;99.90
43858;DHT22;29507;51.284;5.758;2022-08-21T01:52:55;13.50;99.90
43858;DHT22;29507;51.284;5.758;2022-08-21T01:55:22;13.40;99.90
43858;DHT22;29507;51.284;5.758;2022-08-21T01:57:48;13.40;99.90
43858;DHT22;29507;51.284;5.758;2022-08-21T02:00:17;13.30;99.90
43858;DHT22;29507;51.284;5.758;2022-08-21T02:02:43;13.30;99.90
43858;DHT22;29507;51.284;5.758;2022-08-21T02:05:10;13.20;99.90
43858;DHT22;29507;51.284;5.758;2022-08-21T02:07:41;13.20;99.90
43858;DHT22;29507;51.284;5.758;2022-08-21T02:10:09;13.10;99.90
43858;DHT22;29507;51.284;5.758;2022-08-21T02:12:36;13.10;99.90
43858;DHT22;29507;51.284;5.758;2022-08-21T02:15:03;13.00;99.90
43858;DHT22;29507;51.284;5.758;2022-08-21T02:17:41;13.00;99.90
43858;DHT22;29507;51.284;5.758;2022-08-21T02:20:09;12.90;99.90
43858;DHT22;29507;51.284;5.758;2022-08-21T02:22:34;12.90;99.90
43858;DHT22;29507;51.284;5.758;2022-08-21T02:25:00;12.90;99.90
43858;DHT22;29507;51.284;5.758;2022-08-21T02:27:26;13.00;99.90
43858;DHT22;29507;51.284;5.758;2022-08-21T02:29:51;13.00;99.90
43858;DHT22;29507;51.284;5.758;2022-08-21T02:32:17;13.00;99.90
43858;DHT22;29507;51.284;5.758;2022-08-21T02:34:42;13.00;99.90
43858;DHT22;29507;51.284;5.758;2022-08-21T02:37:08;12.90;99.90
43858;DHT22;29507;51.284;5.758;2022-08-21T02:39:33;12.90;99.90
43858;DHT22;29507;51.284;5.758;2022-08-21T02:41:59;12.80;99.90
43858;DHT22;29507;51.284;5.758;2022-08-21T02:44:25;12.80;99.90
43858;DHT22;29507;51.284;5.758;2022-08-21T02:46:51;12.70;99.90
43858;DHT22;29507;51.284;5.758;2022-08-21T02:49:16;12.70;99.90
43858;DHT22;29507;51.284;5.758;2022-08-21T02:51:42;12.70;99.90
43858;DHT22;29507;51.284;5.758;2022-08-21T02:54:07;12.70;99.90
43858;DHT22;29507;51.284;5.758;2022-08-21T02:56:33;12.70;99.90
43858;DHT22;29507;51.284;5.758;2022-08-21T02:58:58;12.60;99.90
43858;DHT22;29507;51.284;5.758;2022-08-21T03:01:24;12.60;99.90
43858;DHT22;29507;51.284;5.758;2022-08-21T03:03:50;12.60;99.90
43858;DHT22;29507;51.284;5.758;2022-08-21T03:06:17;12.60;99.90
43858;DHT22;29507;51.284;5.758;2022-08-21T03:08:43;12.60;99.90
43858;DHT22;29507;51.284;5.758;2022-08-21T03:11:11;12.70;99.90
43858;DHT22;29507;51.284;5.758;2022-08-21T03:13:36;12.60;99.90
43858;DHT22;29507;51.284;5.758;2022-08-21T03:16:02;12.70;99.90
43858;DHT22;29507;51.284;5.758;2022-08-21T03:18:28;12.80;99.90
43858;DHT22;29507;51.284;5.758;2022-08-21T03:20:53;12.80;99.90
43858;DHT22;29507;51.284;5.758;2022-08-21T03:23:19;12.80;99.90
43858;DHT22;29507;51.284;5.758;2022-08-21T03:25:46;12.80;99.90
43858;DHT22;29507;51.284;5.758;2022-08-21T03:28:15;12.80;99.90
43858;DHT22;29507;51.284;5.758;2022-08-21T03:30:44;12.70;99.90
43858;DHT22;29507;51.284;5.758;2022-08-21T03:33:10;12.80;99.90
43858;DHT22;29507;51.284;5.758;2022-08-21T03:35:36;12.80;99.90
43858;DHT22;29507;51.284;5.758;2022-08-21T03:38:02;12.90;99.90
43858;DHT22;29507;51.284;5.758;2022-08-21T03:40:28;13.00;99.90
43858;DHT22;29507;51.284;5.758;2022-08-21T03:42:54;13.10;99.90
43858;DHT22;29507;51.284;5.758;2022-08-21T03:45:20;13.10;99.90
43858;DHT22;29507;51.284;5.758;2022-08-21T03:47:57;13.10;99.90
43858;DHT22;29507;51.284;5.758;2022-08-21T03:50:28;13.20;99.90
43858;DHT22;29507;51.284;5.758;2022-08-21T03:52:54;13.20;99.90
43858;DHT22;29507;51.284;5.758;2022-08-21T03:55:20;13.20;99.90
43858;DHT22;29507;51.284;5.758;2022-08-21T03:57:45;13.20;99.90
43858;DHT22;29507;51.284;5.758;2022-08-21T04:00:13;13.20;99.90
43858;DHT22;29507;51.284;5.758;2022-08-21T04:02:39;13.20;99.90
43858;DHT22;29507;51.284;5.758;2022-08-21T04:05:06;13.10;99.90
43858;DHT22;29507;51.284;5.758;2022-08-21T04:07:32;12.90;99.90
43858;DHT22;29507;51.284;5.758;2022-08-21T04:09:57;12.80;99.90
43858;DHT22;29507;51.284;5.758;2022-08-21T04:12:23;12.70;99.90
43858;DHT22;29507;51.284;5.758;2022-08-21T04:14:49;12.60;99.90
43858;DHT22;29507;51.284;5.758;2022-08-21T04:17:17;12.60;99.90
43858;DHT22;29507;51.284;5.758;2022-08-21T04:19:42;12.50;99.90
43858;DHT22;29507;51.284;5.758;2022-08-21T04:22:08;12.50;99.90
43858;DHT22;29507;51.284;5.758;2022-08-21T04:24:33;12.50;99.90
43858;DHT22;29507;51.284;5.758;2022-08-21T04:26:59;12.40;99.90
43858;DHT22;29507;51.284;5.758;2022-08-21T04:29:25;12.30;99.90
43858;DHT22;29507;51.284;5.758;2022-08-21T04:31:51;12.20;99.90
43858;DHT22;29507;51.284;5.758;2022-08-21T04:34:18;12.20;99.90
43858;DHT22;29507;51.284;5.758;2022-08-21T04:36:43;12.10;99.90
43858;DHT22;29507;51.284;5.758;2022-08-21T04:39:09;12.00;99.90
43858;DHT22;29507;51.284;5.758;2022-08-21T04:41:35;12.10;99.90
43858;DHT22;29507;51.284;5.758;2022-08-21T04:44:02;12.10;99.90
43858;DHT22;29507;51.284;5.758;2022-08-21T04:46:28;12.10;99.90
43858;DHT22;29507;51.284;5.758;2022-08-21T04:48:54;12.00;99.90
43858;DHT22;29507;51.284;5.758;2022-08-21T04:51:25;12.00;99.90
43858;DHT22;29507;51.284;5.758;2022-08-21T04:54:00;12.00;99.90
43858;DHT22;29507;51.284;5.758;2022-08-21T04:56:34;12.00;99.90
43858;DHT22;29507;51.284;5.758;2022-08-21T04:59:03;12.10;99.90
43858;DHT22;29507;51.284;5.758;2022-08-21T05:01:32;12.10;99.90
43858;DHT22;29507;51.284;5.758;2022-08-21T05:04:00;12.10;99.90
43858;DHT22;29507;51.284;5.758;2022-08-21T05:06:28;12.10;99.90
43858;DHT22;29507;51.284;5.758;2022-08-21T05:08:55;12.20;99.90
43858;DHT22;29507;51.284;5.758;2022-08-21T05:11:21;12.20;99.90
43858;DHT22;29507;51.284;5.758;2022-08-21T05:13:48;12.20;99.90
43858;DHT22;29507;51.284;5.758;2022-08-21T05:16:14;12.30;99.90
43858;DHT22;29507;51.284;5.758;2022-08-21T05:18:41;12.30;99.90
43858;DHT22;29507;51.284;5.758;2022-08-21T05:21:08;12.30;99.90
43858;DHT22;29507;51.284;5.758;2022-08-21T05:23:35;12.40;99.90
43858;DHT22;29507;51.284;5.758;2022-08-21T05:26:00;12.40;99.90
43858;DHT22;29507;51.284;5.758;2022-08-21T05:28:26;12.50;99.90
43858;DHT22;29507;51.284;5.758;2022-08-21T05:30:52;12.50;99.90
43858;DHT22;29507;51.284;5.758;2022-08-21T05:33:17;12.60;99.90
43858;DHT22;29507;51.284;5.758;2022-08-21T05:35:43;12.70;99.90
43858;DHT22;29507;51.284;5.758;2022-08-21T05:38:08;12.80;99.90
43858;DHT22;29507;51.284;5.758;2022-08-21T05:40:34;12.80;99.90
43858;DHT22;29507;51.284;5.758;2022-08-21T05:43:00;12.90;99.90
43858;DHT22;29507;51.284;5.758;2022-08-21T05:45:28;13.00;99.90
43858;DHT22;29507;51.284;5.758;2022-08-21T05:47:54;13.10;99.90
43858;DHT22;29507;51.284;5.758;2022-08-21T05:50:20;13.10;99.90
43858;DHT22;29507;51.284;5.758;2022-08-21T05:52:46;13.30;99.90
43858;DHT22;29507;51.284;5.758;2022-08-21T05:55:12;13.30;99.90
43858;DHT22;29507;51.284;5.758;2022-08-21T05:57:37;13.40;99.90
43858;DHT22;29507;51.284;5.758;2022-08-21T06:00:09;13.50;99.90
43858;DHT22;29507;51.284;5.758;2022-08-21T06:02:37;13.60;99.90
43858;DHT22;29507;51.284;5.758;2022-08-21T06:05:03;13.70;99.90
43858;DHT22;29507;51.284;5.758;2022-08-21T06:07:29;13.80;99.90
43858;DHT22;29507;51.284;5.758;2022-08-21T06:09:54;14.00;99.90
43858;DHT22;29507;51.284;5.758;2022-08-21T06:12:21;14.10;99.90
43858;DHT22;29507;51.284;5.758;2022-08-21T06:14:46;14.20;99.90
43858;DHT22;29507;51.284;5.758;2022-08-21T06:17:12;14.30;99.90
43858;DHT22;29507;51.284;5.758;2022-08-21T06:19:39;14.40;99.90
43858;DHT22;29507;51.284;5.758;2022-08-21T06:22:05;14.60;99.90
43858;DHT22;29507;51.284;5.758;2022-08-21T06:24:31;14.70;99.90
43858;DHT22;29507;51.284;5.758;2022-08-21T06:26:57;14.80;99.90
43858;DHT22;29507;51.284;5.758;2022-08-21T06:29:23;14.90;99.90
43858;DHT22;29507;51.284;5.758;2022-08-21T06:31:50;15.10;99.90
43858;DHT22;29507;51.284;5.758;2022-08-21T06:34:17;15.20;99.90
43858;DHT22;29507;51.284;5.758;2022-08-21T06:36:43;15.40;99.90
43858;DHT22;29507;51.284;5.758;2022-08-21T06:39:09;15.50;99.90
43858;DHT22;29507;51.284;5.758;2022-08-21T06:41:35;16.00;99.90
43858;DHT22;29507;51.284;5.758;2022-08-21T06:44:00;16.20;99.90
43858;DHT22;29507;51.284;5.758;2022-08-21T06:46:28;16.80;99.90
43858;DHT22;29507;51.284;5.758;2022-08-21T06:48:55;17.00;99.90
43858;DHT22;29507;51.284;5.758;2022-08-21T06:51:21;16.90;99.90
43858;DHT22;29507;51.284;5.758;2022-08-21T06:53:47;16.80;99.90
43858;DHT22;29507;51.284;5.758;2022-08-21T06:56:13;16.80;99.90
43858;DHT22;29507;51.284;5.758;2022-08-21T06:58:39;16.80;99.90
43858;DHT22;29507;51.284;5.758;2022-08-21T07:01:04;17.60;99.90
43858;DHT22;29507;51.284;5.758;2022-08-21T07:03:41;18.60;99.90
43858;DHT22;29507;51.284;5.758;2022-08-21T07:06:09;19.50;99.90
43858;DHT22;29507;51.284;5.758;2022-08-21T07:08:35;19.90;99.90
43858;DHT22;29507;51.284;5.758;2022-08-21T07:11:04;20.40;99.90
43858;DHT22;29507;51.284;5.758;2022-08-21T07:13:31;20.50;99.90
43858;DHT22;29507;51.284;5.758;2022-08-21T07:15:57;20.80;99.90
43858;DHT22;29507;51.284;5.758;2022-08-21T07:18:22;20.90;99.90
43858;DHT22;29507;51.284;5.758;2022-08-21T07:20:48;21.00;98.50
43858;DHT22;29507;51.284;5.758;2022-08-21T07:23:34;21.10;98.40
43858;DHT22;29507;51.284;5.758;2022-08-21T07:26:02;21.30;99.50
43858;DHT22;29507;51.284;5.758;2022-08-21T07:28:29;21.60;96.10
43858;DHT22;29507;51.284;5.758;2022-08-21T07:30:57;21.60;95.60
43858;DHT22;29507;51.284;5.758;2022-08-21T07:33:25;21.70;94.10
43858;DHT22;29507;51.284;5.758;2022-08-21T07:35:51;22.00;94.60
43858;DHT22;29507;51.284;5.758;2022-08-21T07:38:17;22.40;92.70
43858;DHT22;29507;51.284;5.758;2022-08-21T07:40:45;22.30;91.60
43858;DHT22;29507;51.284;5.758;2022-08-21T07:43:10;22.20;92.90
43858;DHT22;29507;51.284;5.758;2022-08-21T07:45:37;22.30;92.40
43858;DHT22;29507;51.284;5.758;2022-08-21T07:48:03;22.70;91.20
43858;DHT22;29507;51.284;5.758;2022-08-21T07:50:29;22.40;91.80
43858;DHT22;29507;51.284;5.758;2022-08-21T07:52:55;22.50;92.00
43858;DHT22;29507;51.284;5.758;2022-08-21T07:55:21;22.30;92.00
43858;DHT22;29507;51.284;5.758;2022-08-21T07:57:48;22.10;92.70
43858;DHT22;29507;51.284;5.758;2022-08-21T08:00:17;22.00;94.70
43858;DHT22;29507;51.284;5.758;2022-08-21T08:02:48;21.70;94.90
43858;DHT22;29507;51.284;5.758;2022-08-21T08:05:16;21.60;98.00
43858;DHT22;29507;51.284;5.758;2022-08-21T08:07:42;21.60;98.90
43858;DHT22;29507;51.284;5.758;2022-08-21T08:10:09;21.50;98.60
43858;DHT22;29507;51.284;5.758;2022-08-21T08:12:38;21.50;99.20
43858;DHT22;29507;51.284;5.758;2022-08-21T08:15:06;21.80;97.70
43858;DHT22;29507;51.284;5.758;2022-08-21T08:17:32;22.40;95.30
43858;DHT22;29507;51.284;5.758;2022-08-21T08:19:58;23.20;92.50
43858;DHT22;29507;51.284;5.758;2022-08-21T08:22:26;23.50;90.50
43858;DHT22;29507;51.284;5.758;2022-08-21T08:24:52;23.50;89.00
43858;DHT22;29507;51.284;5.758;2022-08-21T08:27:19;23.50;89.70
43858;DHT22;29507;51.284;5.758;2022-08-21T08:29:45;23.70;89.20
43858;DHT22;29507;51.284;5.758;2022-08-21T08:32:11;23.80;89.40
43858;DHT22;29507;51.284;5.758;2022-08-21T08:34:38;24.10;86.70
43858;DHT22;29507;51.284;5.758;2022-08-21T08:37:06;23.90;87.80
43858;DHT22;29507;51.284;5.758;2022-08-21T08:39:33;23.80;88.40
43858;DHT22;29507;51.284;5.758;2022-08-21T08:42:16;24.10;88.00
43858;DHT22;29507;51.284;5.758;2022-08-21T08:44:44;23.50;88.30
43858;DHT22;29507;51.284;5.758;2022-08-21T08:47:16;22.50;91.70
43858;DHT22;29507;51.284;5.758;2022-08-21T08:49:53;21.90;96.20
43858;DHT22;29507;51.284;5.758;2022-08-21T08:52:32;21.40;99.90
43858;DHT22;29507;51.284;5.758;2022-08-21T08:57:34;21.50;99.90
43858;DHT22;29507;51.284;5.758;2022-08-21T09:00:07;22.00;99.90
43858;DHT22;29507;51.284;5.758;2022-08-21T09:02:35;22.40;96.30
43858;DHT22;29507;51.284;5.758;2022-08-21T09:05:01;22.60;94.20
43858;DHT22;29507;51.284;5.758;2022-08-21T09:07:47;23.20;93.40
43858;DHT22;29507;51.284;5.758;2022-08-21T09:10:21;24.00;88.60
43858;DHT22;29507;51.284;5.758;2022-08-21T09:15:36;24.00;85.20
43858;DHT22;29507;51.284;5.758;2022-08-21T09:24:16;23.80;86.50
43858;DHT22;29507;51.284;5.758;2022-08-21T09:27:09;23.80;83.20
43858;DHT22;29507;51.284;5.758;2022-08-21T09:29:39;22.90;86.10
43858;DHT22;29507;51.284;5.758;2022-08-21T09:32:21;22.70;88.50
43858;DHT22;29507;51.284;5.758;2022-08-21T09:35:14;22.60;88.80
43858;DHT22;29507;51.284;5.758;2022-08-21T09:42:59;23.80;85.60
43858;DHT22;29507;51.284;5.758;2022-08-21T09:45:25;24.10;83.50
43858;DHT22;29507;51.284;5.758;2022-08-21T09:47:50;24.70;80.80
43858;DHT22;29507;51.284;5.758;2022-08-21T09:50:24;24.90;79.60
43858;DHT22;29507;51.284;5.758;2022-08-21T09:53:00;26.00;77.70
43858;DHT22;29507;51.284;5.758;2022-08-21T09:55:32;26.20;73.50
43858;DHT22;29507;51.284;5.758;2022-08-21T09:58:18;26.00;73.90
43858;DHT22;29507;51.284;5.758;2022-08-21T10:00:44;25.80;74.20
43858;DHT22;29507;51.284;5.758;2022-08-21T10:03:14;25.70;74.90
43858;DHT22;29507;51.284;5.758;2022-08-21T10:05:58;25.30;75.00
43858;DHT22;29507;51.284;5.758;2022-08-21T10:08:26;25.10;76.00
43858;DHT22;29507;51.284;5.758;2022-08-21T10:11:06;24.70;77.10
43858;DHT22;29507;51.284;5.758;2022-08-21T10:16:29;24.80;76.00
43858;DHT22;29507;51.284;5.758;2022-08-21T10:19:21;25.00;74.60
43858;DHT22;29507;51.284;5.758;2022-08-21T10:22:17;25.00;75.60
43858;DHT22;29507;51.284;5.758;2022-08-21T10:25:21;25.50;75.60
43858;DHT22;29507;51.284;5.758;2022-08-21T10:28:10;26.00;74.20
43858;DHT22;29507;51.284;5.758;2022-08-21T10:33:16;25.80;74.10
43858;DHT22;29507;51.284;5.758;2022-08-21T10:38:54;26.90;72.10
43858;DHT22;29507;51.284;5.758;2022-08-21T10:44:27;28.00;67.70
43858;DHT22;29507;51.284;5.758;2022-08-21T10:47:12;27.40;68.30
43858;DHT22;29507;51.284;5.758;2022-08-21T10:50:09;27.70;68.10
43858;DHT22;29507;51.284;5.758;2022-08-21T10:55:19;27.60;66.80
43858;DHT22;29507;51.284;5.758;2022-08-21T10:58:00;27.30;68.00
43858;DHT22;29507;51.284;5.758;2022-08-21T11:00:43;26.60;67.80
43858;DHT22;29507;51.284;5.758;2022-08-21T11:05:58;25.90;70.00
43858;DHT22;29507;51.284;5.758;2022-08-21T11:13:45;26.30;68.90
43858;DHT22;29507;51.284;5.758;2022-08-21T11:16:41;26.80;68.20
43858;DHT22;29507;51.284;5.758;2022-08-21T11:24:51;27.20;65.20
43858;DHT22;29507;51.284;5.758;2022-08-21T11:30:13;27.30;66.90
43858;DHT22;29507;51.284;5.758;2022-08-21T11:35:39;27.80;63.80
43858;DHT22;29507;51.284;5.758;2022-08-21T11:43:41;28.60;65.60
43858;DHT22;29507;51.284;5.758;2022-08-21T11:52:27;28.20;62.90
43858;DHT22;29507;51.284;5.758;2022-08-21T11:57:20;27.40;62.50
43858;DHT22;29507;51.284;5.758;2022-08-21T12:02:49;26.70;63.70
43858;DHT22;29507;51.284;5.758;2022-08-21T12:05:30;26.00;65.10
43858;DHT22;29507;51.284;5.758;2022-08-21T12:10:37;25.30;67.20
43858;DHT22;29507;51.284;5.758;2022-08-21T12:13:26;25.90;66.00
43858;DHT22;29507;51.284;5.758;2022-08-21T12:15:52;26.60;64.50
43858;DHT22;29507;51.284;5.758;2022-08-21T12:18:29;27.60;63.50
43858;DHT22;29507;51.284;5.758;2022-08-21T12:23:48;29.80;59.10
43858;DHT22;29507;51.284;5.758;2022-08-21T12:26:33;30.10;58.10
43858;DHT22;29507;51.284;5.758;2022-08-21T12:29:16;30.20;58.00
43858;DHT22;29507;51.284;5.758;2022-08-21T12:32:04;30.20;57.20
43858;DHT22;29507;51.284;5.758;2022-08-21T12:37:34;30.90;55.80
43858;DHT22;29507;51.284;5.758;2022-08-21T12:40:11;30.90;55.60
43858;DHT22;29507;51.284;5.758;2022-08-21T12:42:44;29.80;56.20
43858;DHT22;29507;51.284;5.758;2022-08-21T12:45:19;29.80;56.80
43858;DHT22;29507;51.284;5.758;2022-08-21T12:47:51;30.10;56.20
43858;DHT22;29507;51.284;5.758;2022-08-21T12:50:33;30.80;55.10
43858;DHT22;29507;51.284;5.758;2022-08-21T12:53:12;30.50;54.70
43858;DHT22;29507;51.284;5.758;2022-08-21T12:55:41;30.70;55.60
43858;DHT22;29507;51.284;5.758;2022-08-21T12:58:20;31.10;54.70
43858;DHT22;29507;51.284;5.758;2022-08-21T13:01:07;31.20;54.80
43858;DHT22;29507;51.284;5.758;2022-08-21T13:03:38;31.90;53.70
43858;DHT22;29507;51.284;5.758;2022-08-21T13:06:05;32.80;52.50
43858;DHT22;29507;51.284;5.758;2022-08-21T13:08:33;32.10;52.30
43858;DHT22;29507;51.284;5.758;2022-08-21T13:11:03;32.00;52.50
43858;DHT22;29507;51.284;5.758;2022-08-21T13:13:30;30.50;54.60
43858;DHT22;29507;51.284;5.758;2022-08-21T13:15:58;31.10;55.20
43858;DHT22;29507;51.284;5.758;2022-08-21T13:18:28;31.70;53.50
43858;DHT22;29507;51.284;5.758;2022-08-21T13:21:07;32.30;52.60
43858;DHT22;29507;51.284;5.758;2022-08-21T13:23:35;31.90;52.30
43858;DHT22;29507;51.284;5.758;2022-08-21T13:26:01;31.80;53.40
43858;DHT22;29507;51.284;5.758;2022-08-21T13:28:36;32.00;52.80
43858;DHT22;29507;51.284;5.758;2022-08-21T13:31:07;32.00;52.30
43858;DHT22;29507;51.284;5.758;2022-08-21T13:33:37;32.40;52.70
43858;DHT22;29507;51.284;5.758;2022-08-21T13:36:09;33.60;51.70
43858;DHT22;29507;51.284;5.758;2022-08-21T13:38:36;34.10;50.00
43858;DHT22;29507;51.284;5.758;2022-08-21T13:41:26;33.40;50.00
43858;DHT22;29507;51.284;5.758;2022-08-21T13:44:05;32.70;50.50
43858;DHT22;29507;51.284;5.758;2022-08-21T13:46:34;32.10;51.10
43858;DHT22;29507;51.284;5.758;2022-08-21T13:49:02;30.90;51.70
43858;DHT22;29507;51.284;5.758;2022-08-21T13:51:31;30.80;53.50
43858;DHT22;29507;51.284;5.758;2022-08-21T13:53:57;31.10;53.80
43858;DHT22;29507;51.284;5.758;2022-08-21T13:56:31;31.70;51.80
43858;DHT22;29507;51.284;5.758;2022-08-21T13:59:00;32.00;52.60
43858;DHT22;29507;51.284;5.758;2022-08-21T14:01:31;31.90;52.50
43858;DHT22;29507;51.284;5.758;2022-08-21T14:04:16;32.50;52.20
43858;DHT22;29507;51.284;5.758;2022-08-21T14:06:44;32.00;51.00
43858;DHT22;29507;51.284;5.758;2022-08-21T14:09:24;32.40;50.80
43858;DHT22;29507;51.284;5.758;2022-08-21T14:11:53;31.70;51.00
43858;DHT22;29507;51.284;5.758;2022-08-21T14:14:25;30.20;52.80
43858;DHT22;29507;51.284;5.758;2022-08-21T14:16:56;29.60;54.90
43858;DHT22;29507;51.284;5.758;2022-08-21T14:19:44;30.10;55.00
43858;DHT22;29507;51.284;5.758;2022-08-21T14:25:13;30.40;52.90
43858;DHT22;29507;51.284;5.758;2022-08-21T14:27:44;29.90;53.80
43858;DHT22;29507;51.284;5.758;2022-08-21T14:30:29;29.20;54.80
43858;DHT22;29507;51.284;5.758;2022-08-21T14:32:56;28.70;56.30
43858;DHT22;29507;51.284;5.758;2022-08-21T14:35:22;28.70;56.10
43858;DHT22;29507;51.284;5.758;2022-08-21T14:37:48;29.10;56.60
43858;DHT22;29507;51.284;5.758;2022-08-21T14:40:18;29.30;55.70
43858;DHT22;29507;51.284;5.758;2022-08-21T14:42:45;29.50;53.70
43858;DHT22;29507;51.284;5.758;2022-08-21T14:45:27;29.40;53.60
43858;DHT22;29507;51.284;5.758;2022-08-21T14:47:55;29.30;54.60
43858;DHT22;29507;51.284;5.758;2022-08-21T14:50:21;29.10;54.90
43858;DHT22;29507;51.284;5.758;2022-08-21T14:52:47;28.70;55.50
43858;DHT22;29507;51.284;5.758;2022-08-21T14:55:13;28.70;55.30
43858;DHT22;29507;51.284;5.758;2022-08-21T14:57:41;28.60;55.30
43858;DHT22;29507;51.284;5.758;2022-08-21T15:00:09;28.30;54.70
43858;DHT22;29507;51.284;5.758;2022-08-21T15:02:36;27.80;55.20
43858;DHT22;29507;51.284;5.758;2022-08-21T15:05:02;27.30;55.60
43858;DHT22;29507;51.284;5.758;2022-08-21T15:07:27;27.00;56.30
43858;DHT22;29507;51.284;5.758;2022-08-21T15:09:53;26.70;56.70
43858;DHT22;29507;51.284;5.758;2022-08-21T15:12:18;26.50;57.30
43858;DHT22;29507;51.284;5.758;2022-08-21T15:14:44;26.30;58.00
43858;DHT22;29507;51.284;5.758;2022-08-21T15:17:10;26.10;58.20
43858;DHT22;29507;51.284;5.758;2022-08-21T15:19:38;25.90;58.20
43858;DHT22;29507;51.284;5.758;2022-08-21T15:22:04;25.90;59.00
43858;DHT22;29507;51.284;5.758;2022-08-21T15:24:29;25.90;60.60
43858;DHT22;29507;51.284;5.758;2022-08-21T15:26:56;25.90;61.30
43858;DHT22;29507;51.284;5.758;2022-08-21T15:29:22;26.10;59.90
43858;DHT22;29507;51.284;5.758;2022-08-21T15:31:56;26.50;58.70
43858;DHT22;29507;51.284;5.758;2022-08-21T15:34:24;26.50;58.60
43858;DHT22;29507;51.284;5.758;2022-08-21T15:36:50;26.50;58.90
43858;DHT22;29507;51.284;5.758;2022-08-21T15:39:16;26.60;58.90
43858;DHT22;29507;51.284;5.758;2022-08-21T15:41:43;26.80;59.20
43858;DHT22;29507;51.284;5.758;2022-08-21T15:44:10;27.10;58.50
43858;DHT22;29507;51.284;5.758;2022-08-21T15:46:38;27.10;58.30
43858;DHT22;29507;51.284;5.758;2022-08-21T15:49:04;27.20;58.20
43858;DHT22;29507;51.284;5.758;2022-08-21T15:51:29;27.20;58.70
43858;DHT22;29507;51.284;5.758;2022-08-21T15:53:55;27.50;59.20
43858;DHT22;29507;51.284;5.758;2022-08-21T15:58:50;27.20;58.20
43858;DHT22;29507;51.284;5.758;2022-08-21T16:01:17;27.00;57.70
43858;DHT22;29507;51.284;5.758;2022-08-21T16:03:47;26.70;58.00
43858;DHT22;29507;51.284;5.758;2022-08-21T16:06:13;26.60;58.80
43858;DHT22;29507;51.284;5.758;2022-08-21T16:08:38;26.70;58.70
43858;DHT22;29507;51.284;5.758;2022-08-21T16:11:04;27.00;59.50
43858;DHT22;29507;51.284;5.758;2022-08-21T16:13:36;27.00;58.30
43858;DHT22;29507;51.284;5.758;2022-08-21T16:16:02;27.20;58.20
43858;DHT22;29507;51.284;5.758;2022-08-21T16:18:29;27.40;57.90
43858;DHT22;29507;51.284;5.758;2022-08-21T16:20:54;27.20;57.80
43858;DHT22;29507;51.284;5.758;2022-08-21T16:23:20;27.00;58.10
43858;DHT22;29507;51.284;5.758;2022-08-21T16:25:46;26.70;58.40
43858;DHT22;29507;51.284;5.758;2022-08-21T16:28:15;26.50;59.10
43858;DHT22;29507;51.284;5.758;2022-08-21T16:30:44;26.20;59.40
43858;DHT22;29507;51.284;5.758;2022-08-21T16:33:19;26.00;60.30
43858;DHT22;29507;51.284;5.758;2022-08-21T16:35:45;26.20;59.40
43858;DHT22;29507;51.284;5.758;2022-08-21T16:38:11;26.10;59.50
43858;DHT22;29507;51.284;5.758;2022-08-21T16:40:36;26.20;60.10
43858;DHT22;29507;51.284;5.758;2022-08-21T16:43:02;26.40;60.10
43858;DHT22;29507;51.284;5.758;2022-08-21T16:45:28;26.40;59.30
43858;DHT22;29507;51.284;5.758;2022-08-21T16:47:53;26.30;60.30
43858;DHT22;29507;51.284;5.758;2022-08-21T16:50:21;26.20;59.70
43858;DHT22;29507;51.284;5.758;2022-08-21T16:52:47;25.90;60.20
43858;DHT22;29507;51.284;5.758;2022-08-21T16:55:13;25.60;61.20
43858;DHT22;29507;51.284;5.758;2022-08-21T16:57:39;25.30;62.40
43858;DHT22;29507;51.284;5.758;2022-08-21T17:00:06;25.10;63.10
43858;DHT22;29507;51.284;5.758;2022-08-21T17:02:39;25.00;63.60